createdAt,value
2024-03-05T00:01:35.241Z,97415.38
2024-03-05T00:04:01.685Z,97419.09
2024-03-05T00:06:27.880Z,97422.84
2024-03-05T00:08:54.111Z,97414.00
2024-03-05T00:11:20.365Z,97414.00
2024-03-05T00:13:46.681Z,97415.09
2024-03-05T00:16:13.155Z,97420.44
2024-03-05T00:18:39.542Z,97428.69
2024-03-05T00:21:05.761Z,97422.53
2024-03-05T00:23:31.972Z,97427.06
2024-03-05T00:25:58.247Z,97419.31
2024-03-05T00:28:24.496Z,97431.84
2024-03-05T00:30:50.730Z,97423.06
2024-03-05T00:33:17.016Z,97424.13
2024-03-05T00:35:43.244Z,97433.19
2024-03-05T00:38:15.069Z,97428.13
2024-03-05T00:40:47.785Z,97423.56
2024-03-05T00:43:14.020Z,97424.63
2024-03-05T00:45:40.262Z,97415.81
2024-03-05T00:48:06.607Z,97416.06
2024-03-05T00:50:32.852Z,97417.16
2024-03-05T00:52:59.238Z,97403.00
2024-03-05T00:55:25.876Z,97411.25
2024-03-05T00:57:52.257Z,97412.34
2024-03-05T01:00:18.448Z,97413.94
2024-03-05T01:02:44.792Z,97416.03
2024-03-05T01:05:11.158Z,97411.25
2024-03-05T01:07:37.585Z,97403.78
2024-03-05T01:10:03.781Z,97417.91
2024-03-05T01:12:29.989Z,97415.50
2024-03-05T01:14:56.325Z,97420.84
2024-03-05T01:17:22.602Z,97421.91
2024-03-05T01:19:48.838Z,97417.59
2024-03-05T01:22:15.121Z,97410.69
2024-03-05T01:24:41.346Z,97419.50
2024-03-05T01:27:07.637Z,97420.53
2024-03-05T01:29:33.992Z,97422.44
2024-03-05T01:32:00.307Z,97421.63
2024-03-05T01:34:26.583Z,97418.13
2024-03-05T01:36:53.109Z,97411.19
2024-03-05T01:39:19.290Z,97416.53
2024-03-05T01:41:45.535Z,97410.13
2024-03-05T01:44:11.879Z,97407.72
2024-03-05T01:46:38.058Z,97409.56
2024-03-05T01:49:04.369Z,97409.56
2024-03-05T01:51:30.769Z,97405.31
2024-03-05T01:53:57.104Z,97402.09
2024-03-05T01:56:23.277Z,97406.34
2024-03-05T01:58:49.600Z,97408.25
2024-03-05T02:01:15.901Z,97404.22
2024-03-05T02:03:42.227Z,97411.41
2024-03-05T02:06:08.466Z,97407.13
2024-03-05T02:08:34.693Z,97403.66
2024-03-05T02:11:01.014Z,97402.88
2024-03-05T02:13:27.558Z,97402.88
2024-03-05T02:15:53.915Z,97402.06
2024-03-05T02:18:20.099Z,97405.00
2024-03-05T02:20:46.301Z,97398.84
2024-03-05T02:23:12.576Z,97404.44
2024-03-05T02:25:38.888Z,97405.25
2024-03-05T02:28:05.112Z,97413.25
2024-03-05T02:30:31.291Z,97408.16
2024-03-05T02:32:57.517Z,97410.03
2024-03-05T02:35:23.765Z,97408.41
2024-03-05T02:37:50.305Z,97408.41
2024-03-05T02:40:16.761Z,97419.06
2024-03-05T02:42:43.094Z,97414.81
2024-03-05T02:45:09.401Z,97418.56
2024-03-05T02:47:35.697Z,97415.88
2024-03-05T02:50:02.064Z,97416.94
2024-03-05T02:52:28.332Z,97416.94
2024-03-05T02:54:54.564Z,97408.13
2024-03-05T02:57:20.780Z,97415.34
2024-03-05T02:59:47.143Z,97419.00
2024-03-05T03:02:13.438Z,97412.06
2024-03-05T03:04:39.645Z,97420.09
2024-03-05T03:07:05.856Z,97415.78
2024-03-05T03:09:32.177Z,97420.34
2024-03-05T03:11:58.354Z,97414.19
2024-03-05T03:14:24.679Z,97415.00
2024-03-05T03:16:51.010Z,97416.84
2024-03-05T03:19:17.257Z,97413.38
2024-03-05T03:21:43.484Z,97410.44
2024-03-05T03:24:09.729Z,97411.78
2024-03-05T03:26:35.923Z,97412.59
2024-03-05T03:29:02.162Z,97414.44
2024-03-05T03:31:28.424Z,97410.16
2024-03-05T03:33:54.621Z,97413.91
2024-03-05T03:36:20.821Z,97409.38
2024-03-05T03:38:47.074Z,97414.16
2024-03-05T03:41:15.276Z,97414.72
2024-03-05T03:43:41.636Z,97421.09
2024-03-05T03:46:07.876Z,97421.34
2024-03-05T03:48:34.092Z,97422.16
2024-03-05T03:51:00.378Z,97416.00
2024-03-05T03:53:26.608Z,97417.88
2024-03-05T03:55:53.198Z,97419.75
2024-03-05T03:58:19.635Z,97422.41
2024-03-05T04:00:45.952Z,97418.13
2024-03-05T04:03:12.185Z,97422.66
2024-03-05T04:05:38.352Z,97425.56
2024-03-05T04:08:05.222Z,97424.78
2024-03-05T04:10:31.739Z,97431.72
2024-03-05T04:12:57.961Z,97422.66
2024-03-05T04:15:24.309Z,97431.72
2024-03-05T04:17:50.614Z,97436.78
2024-03-05T04:20:17.122Z,97436.53
2024-03-05T04:22:43.530Z,97435.50
2024-03-05T04:25:09.745Z,97438.97
2024-03-05T04:27:35.957Z,97439.75
2024-03-05T04:30:02.324Z,97443.25
2024-03-05T04:32:29.068Z,97436.06
2024-03-05T04:34:55.607Z,97441.38
2024-03-05T04:37:21.913Z,97449.13
2024-03-05T04:39:48.115Z,97441.13
2024-03-05T04:42:14.312Z,97446.19
2024-03-05T04:44:40.696Z,97447.78
2024-03-05T04:47:06.890Z,97442.47
2024-03-05T04:49:33.266Z,97451.03
2024-03-05T04:51:59.504Z,97445.69
2024-03-05T04:54:25.847Z,97437.44
2024-03-05T04:56:52.217Z,97441.50
2024-03-05T04:59:18.420Z,97441.50
2024-03-05T05:01:44.667Z,97442.31
2024-03-05T05:04:10.896Z,97444.72
2024-03-05T05:06:37.167Z,97440.97
2024-03-05T05:09:03.353Z,97437.25
2024-03-05T05:11:29.753Z,97437.00
2024-03-05T05:13:56.143Z,97435.94
2024-03-05T05:16:22.455Z,97438.59
2024-03-05T05:18:48.721Z,97438.59
2024-03-05T05:21:17.066Z,97439.41
2024-03-05T05:23:43.242Z,97439.97
2024-03-05T05:26:09.475Z,97438.06
2024-03-05T05:28:35.818Z,97439.44
2024-03-05T05:31:02.073Z,97448.00
2024-03-05T05:33:28.268Z,97441.34
2024-03-05T05:35:54.600Z,97445.38
2024-03-05T05:38:20.798Z,97455.53
2024-03-05T05:40:47.050Z,97459.00
2024-03-05T05:43:13.281Z,97448.88
2024-03-05T05:45:39.469Z,97456.63
2024-03-05T05:48:05.867Z,97459.84
2024-03-05T05:50:32.272Z,97463.84
2024-03-05T05:52:58.537Z,97465.47
2024-03-05T05:55:24.813Z,97466.25
2024-03-05T05:57:51.062Z,97457.75
2024-03-05T06:00:17.309Z,97461.00
2024-03-05T06:02:43.527Z,97465.25
2024-03-05T06:05:09.838Z,97473.81
2024-03-05T06:07:36.114Z,97474.38
2024-03-05T06:10:02.364Z,97471.44
2024-03-05T06:12:28.721Z,97473.59
2024-03-05T06:14:54.912Z,97467.97
2024-03-05T06:17:21.192Z,97466.94
2024-03-05T06:19:47.418Z,97472.03
2024-03-05T06:22:19.439Z,97475.25
2024-03-05T06:24:46.100Z,97465.13
2024-03-05T06:27:12.298Z,97467.53
2024-03-05T06:29:38.492Z,97470.75
2024-03-05T06:32:04.836Z,97468.59
2024-03-05T06:34:31.069Z,97469.41
2024-03-05T06:36:57.331Z,97464.88
2024-03-05T06:39:23.525Z,97474.47
2024-03-05T06:41:49.752Z,97469.69
2024-03-05T06:44:16.035Z,97471.28
2024-03-05T06:46:42.620Z,97475.03
2024-03-05T06:49:09.039Z,97471.28
2024-03-05T06:51:35.265Z,97477.69
2024-03-05T06:54:01.441Z,97481.97
2024-03-05T06:56:27.636Z,97483.84
2024-03-05T06:58:53.927Z,97473.44
2024-03-05T07:01:20.533Z,97484.13
2024-03-05T07:03:46.823Z,97488.66
2024-03-05T07:06:13.057Z,97486.25
2024-03-05T07:08:39.382Z,97485.44
2024-03-05T07:11:05.739Z,97489.94
2024-03-05T07:13:32.036Z,97489.94
2024-03-05T07:15:58.222Z,97492.63
2024-03-05T07:18:24.671Z,97492.63
2024-03-05T07:20:50.914Z,97489.16
2024-03-05T07:23:17.125Z,97484.88
2024-03-05T07:25:43.362Z,97489.16
2024-03-05T07:28:11.988Z,97493.69
2024-03-05T07:30:38.210Z,97503.31
2024-03-05T07:33:04.572Z,97504.38
2024-03-05T07:35:30.858Z,97500.63
2024-03-05T07:37:57.224Z,97497.19
2024-03-05T07:40:23.680Z,97502.25
2024-03-05T07:42:50.014Z,97490.50
2024-03-05T07:45:16.204Z,97491.56
2024-03-05T07:47:42.538Z,97489.72
2024-03-05T07:50:08.746Z,97493.19
2024-03-05T07:52:34.973Z,97494.81
2024-03-05T07:55:01.318Z,97496.66
2024-03-05T07:57:27.541Z,97493.19
2024-03-05T07:59:54.798Z,97497.72
2024-03-05T08:02:21.172Z,97488.91
2024-03-05T08:04:47.433Z,97490.75
2024-03-05T08:07:13.650Z,97493.44
2024-03-05T08:09:39.909Z,97489.16
2024-03-05T08:12:06.230Z,97492.88
2024-03-05T08:14:32.497Z,97491.84
2024-03-05T08:16:58.728Z,97497.44
2024-03-05T08:19:24.987Z,97488.63
2024-03-05T08:21:51.467Z,97492.09
2024-03-05T08:24:17.741Z,97495.81
2024-03-05T08:26:43.971Z,97490.47
2024-03-05T08:29:13.080Z,97496.06
2024-03-05T08:31:39.506Z,97500.59
2024-03-05T08:34:05.959Z,97501.69
2024-03-05T08:36:32.225Z,97505.94
2024-03-05T08:38:58.445Z,97500.59
2024-03-05T08:41:24.677Z,97506.50
2024-03-05T08:43:51.049Z,97504.91
2024-03-05T08:46:17.453Z,97507.03
2024-03-05T08:48:43.775Z,97508.06
2024-03-05T08:51:10.000Z,97517.97
2024-03-05T08:53:36.241Z,97517.41
2024-03-05T08:56:02.533Z,97515.00
2024-03-05T08:58:28.829Z,97518.72
2024-03-05T09:00:57.816Z,97524.03
2024-03-05T09:03:24.047Z,97518.72
2024-03-05T09:05:50.372Z,97525.13
2024-03-05T09:08:16.729Z,97528.59
2024-03-05T09:10:43.144Z,97520.03
2024-03-05T09:13:11.371Z,97522.72
2024-03-05T09:15:41.822Z,97521.09
2024-03-05T09:18:10.084Z,97528.31
2024-03-05T09:20:37.359Z,97524.84
2024-03-05T09:23:03.732Z,97521.34
2024-03-05T09:25:30.048Z,97519.75
2024-03-05T09:27:56.309Z,97525.09
2024-03-05T09:30:22.609Z,97520.78
2024-03-05T09:32:49.968Z,97518.94
2024-03-05T09:35:16.281Z,97520.78
2024-03-05T09:37:42.533Z,97527.75
2024-03-05T09:40:08.821Z,97519.75
2024-03-05T09:42:35.035Z,97520.53
2024-03-05T09:45:01.476Z,97524.00
2024-03-05T09:47:27.800Z,97527.50
2024-03-05T09:49:54.115Z,97526.69
2024-03-05T09:52:20.498Z,97526.69
2024-03-05T09:54:46.777Z,97521.91
2024-03-05T09:57:12.991Z,97522.44
2024-03-05T09:59:39.199Z,97523.78
2024-03-05T10:02:05.571Z,97527.28
2024-03-05T10:04:31.921Z,97520.88
2024-03-05T10:06:58.141Z,97519.81
2024-03-05T10:09:25.809Z,97525.72
2024-03-05T10:11:52.335Z,97520.94
2024-03-05T10:14:18.577Z,97519.84
2024-03-05T10:16:44.902Z,97524.16
2024-03-05T10:19:11.179Z,97523.34
2024-03-05T10:21:37.352Z,97525.19
2024-03-05T10:24:03.557Z,97521.72
2024-03-05T10:26:29.761Z,97529.50
2024-03-05T10:28:56.001Z,97524.16
2024-03-05T10:31:22.190Z,97531.09
2024-03-05T10:33:48.464Z,97529.78
2024-03-05T10:36:14.660Z,97524.19
2024-03-05T10:38:40.859Z,97532.72
2024-03-05T10:41:07.154Z,97531.66
2024-03-05T10:43:36.649Z,97530.59
2024-03-05T10:46:02.893Z,97538.34
2024-03-05T10:48:29.346Z,97539.16
2024-03-05T10:50:55.533Z,97536.47
2024-03-05T10:53:21.714Z,97541.56
2024-03-05T10:55:48.738Z,97537.03
2024-03-05T10:58:15.986Z,97540.53
2024-03-05T11:00:42.595Z,97542.94
2024-03-05T11:03:11.963Z,97539.19
2024-03-05T11:05:38.151Z,97545.34
2024-03-05T11:08:04.449Z,97553.09
2024-03-05T11:10:30.738Z,97545.63
2024-03-05T11:12:57.120Z,97547.00
2024-03-05T11:15:23.331Z,97546.75
2024-03-05T11:17:49.562Z,97544.84
2024-03-05T11:20:15.768Z,97544.63
2024-03-05T11:22:42.007Z,97543.31
2024-03-05T11:25:08.203Z,97542.00
2024-03-05T11:27:34.473Z,97545.22
2024-03-05T11:30:00.669Z,97539.88
2024-03-05T11:32:26.860Z,97543.59
2024-03-05T11:34:53.117Z,97548.94
2024-03-05T11:37:19.451Z,97532.91
2024-03-05T11:39:45.660Z,97539.34
2024-03-05T11:42:11.981Z,97547.34
2024-03-05T11:44:38.207Z,97543.59
2024-03-05T11:47:04.586Z,97534.53
2024-03-05T11:49:30.969Z,97550.56
2024-03-05T11:51:57.372Z,97530.78
2024-03-05T11:54:25.296Z,97537.72
2024-03-05T11:56:51.815Z,97545.25
2024-03-05T11:59:18.008Z,97529.75
2024-03-05T12:01:44.468Z,97539.94
2024-03-05T12:04:10.982Z,97546.88
2024-03-05T12:06:37.271Z,97530.84
2024-03-05T12:09:03.555Z,97537.81
2024-03-05T12:11:29.887Z,97534.06
2024-03-05T12:13:56.215Z,97537.28
2024-03-05T12:16:22.461Z,97528.44
2024-03-05T12:18:48.661Z,97529.00
2024-03-05T12:21:14.895Z,97526.06
2024-03-05T12:23:43.979Z,97530.38
2024-03-05T12:26:10.368Z,97530.38
2024-03-05T12:28:36.686Z,97523.94
2024-03-05T12:31:03.093Z,97524.50
2024-03-05T12:33:29.340Z,97526.34
2024-03-05T12:35:55.584Z,97524.22
2024-03-05T12:38:21.960Z,97525.03
2024-03-05T12:40:48.177Z,97526.63
2024-03-05T12:43:14.480Z,97523.16
2024-03-05T12:45:40.755Z,97525.81
2024-03-05T12:48:07.017Z,97525.03
2024-03-05T12:50:33.342Z,97527.16
2024-03-05T12:52:59.624Z,97522.63
2024-03-05T12:55:25.869Z,97529.56
2024-03-05T12:57:52.208Z,97525.03
2024-03-05T13:00:18.409Z,97529.56
2024-03-05T13:02:44.652Z,97533.06
2024-03-05T13:05:11.466Z,97534.91
2024-03-05T13:07:38.046Z,97534.91
2024-03-05T13:10:04.334Z,97537.84
2024-03-05T13:12:30.509Z,97533.31
2024-03-05T13:14:56.704Z,97539.97
2024-03-05T13:17:22.987Z,97533.03
2024-03-05T13:19:49.243Z,97533.28
2024-03-05T13:22:15.566Z,97535.16
2024-03-05T13:24:41.771Z,97529.81
2024-03-05T13:27:07.985Z,97529.28
2024-03-05T13:29:34.233Z,97534.06
2024-03-05T13:32:00.814Z,97527.91
2024-03-05T13:34:27.137Z,97530.84
2024-03-05T13:36:53.376Z,97534.59
2024-03-05T13:39:19.652Z,97534.03
2024-03-05T13:41:48.955Z,97542.06
2024-03-05T13:44:15.501Z,97536.97
2024-03-05T13:46:41.791Z,97536.16
2024-03-05T13:49:07.977Z,97527.59
2024-03-05T13:51:34.207Z,97536.69
2024-03-05T13:54:00.417Z,97538.81
2024-03-05T13:56:26.627Z,97539.88
2024-03-05T13:58:52.908Z,97550.81
2024-03-05T14:01:19.163Z,97539.34
2024-03-05T14:03:45.405Z,97546.78
2024-03-05T14:06:11.593Z,97547.03
2024-03-05T14:08:37.773Z,97548.06
2024-03-05T14:11:04.055Z,97549.16
2024-03-05T14:13:30.389Z,97545.91
2024-03-05T14:15:56.624Z,97551.25
2024-03-05T14:18:22.855Z,97544.31
2024-03-05T14:20:49.125Z,97547.22
2024-03-05T14:23:15.365Z,97548.84
2024-03-05T14:25:41.727Z,97546.44
2024-03-05T14:28:07.962Z,97549.38
2024-03-05T14:30:34.154Z,97543.22
2024-03-05T14:33:00.715Z,97541.06
2024-03-05T14:35:27.074Z,97541.06
2024-03-05T14:37:53.465Z,97546.66
2024-03-05T14:40:19.753Z,97555.72
2024-03-05T14:42:46.120Z,97551.69
2024-03-05T14:45:12.360Z,97549.28
2024-03-05T14:47:39.546Z,97550.38
2024-03-05T14:50:05.792Z,97553.28
2024-03-05T14:52:32.139Z,97553.56
2024-03-05T14:54:58.419Z,97556.47
2024-03-05T14:57:24.660Z,97555.66
2024-03-05T14:59:50.872Z,97558.59
2024-03-05T15:02:17.175Z,97564.19
2024-03-05T15:04:43.497Z,97554.56
2024-03-05T15:07:09.730Z,97558.31
2024-03-05T15:09:35.933Z,97555.91
2024-03-05T15:12:02.271Z,97559.59
2024-03-05T15:14:28.480Z,97558.28
2024-03-05T15:16:54.781Z,97567.31
2024-03-05T15:19:21.004Z,97567.31
2024-03-05T15:21:47.176Z,97572.66
2024-03-05T15:24:15.702Z,97584.41
2024-03-05T15:26:50.329Z,97569.44
2024-03-05T15:29:24.444Z,97584.41
2024-03-05T15:31:50.675Z,97579.06
2024-03-05T15:34:16.921Z,97580.13
2024-03-05T15:36:43.375Z,97577.44
2024-03-05T15:39:09.564Z,97582.00
2024-03-05T15:41:35.793Z,97575.84
2024-03-05T15:44:02.125Z,97579.56
2024-03-05T15:46:28.457Z,97580.13
2024-03-05T15:48:54.813Z,97586.53
2024-03-05T15:51:21.016Z,97597.22
2024-03-05T15:53:47.239Z,97581.44
2024-03-05T15:56:13.861Z,97593.16
2024-03-05T15:58:40.215Z,97591.56
2024-03-05T16:01:06.442Z,97593.69
2024-03-05T16:03:34.757Z,97587.53
2024-03-05T16:06:10.722Z,97601.94
2024-03-05T16:08:40.168Z,97596.59
2024-03-05T16:11:07.540Z,97601.94
2024-03-05T16:13:33.782Z,97601.94
2024-03-05T16:16:00.123Z,97609.16
2024-03-05T16:18:26.440Z,97601.13
2024-03-05T16:20:52.680Z,97602.75
2024-03-05T16:23:18.922Z,97599.84
2024-03-05T16:25:45.163Z,97613.97
2024-03-05T16:28:11.967Z,97614.78
2024-03-05T16:30:38.542Z,97619.09
2024-03-05T16:33:05.027Z,97621.75
2024-03-05T16:35:31.271Z,97625.22
2024-03-05T16:37:57.550Z,97620.69
2024-03-05T16:40:23.831Z,97628.69
2024-03-05T16:42:50.054Z,97631.34
2024-03-05T16:45:16.270Z,97632.16
2024-03-05T16:47:42.503Z,97633.78
2024-03-05T16:50:08.793Z,97639.09
2024-03-05T16:52:35.064Z,97640.75
2024-03-05T16:55:01.311Z,97645.25
2024-03-05T16:57:27.560Z,97645.25
2024-03-05T16:59:53.763Z,97648.97
2024-03-05T17:02:20.036Z,97651.66
2024-03-05T17:04:46.261Z,97663.41
2024-03-05T17:07:12.458Z,97662.31
2024-03-05T17:09:38.846Z,97665.81
2024-03-05T17:12:05.174Z,97655.94
2024-03-05T17:14:31.394Z,97666.63
2024-03-05T17:16:57.655Z,97668.22
2024-03-05T17:19:25.851Z,97667.19
2024-03-05T17:21:52.058Z,97680.53
2024-03-05T17:24:18.237Z,97679.47
2024-03-05T17:26:44.739Z,97676.78
2024-03-05T17:29:11.041Z,97685.63
2024-03-05T17:31:37.409Z,97692.81
2024-03-05T17:34:03.813Z,97688.53
2024-03-05T17:36:30.017Z,97696.56
2024-03-05T17:38:56.199Z,97688.53
2024-03-05T17:41:22.430Z,97688.53
2024-03-05T17:43:48.703Z,97691.22
2024-03-05T17:46:14.925Z,97701.06
2024-03-05T17:48:41.094Z,97697.59
2024-03-05T17:51:07.333Z,97697.03
2024-03-05T17:53:33.563Z,97702.38
2024-03-05T17:55:59.818Z,97702.63
2024-03-05T17:58:26.127Z,97696.72
2024-03-05T18:00:52.579Z,97711.97
2024-03-05T18:03:18.905Z,97703.41
2024-03-05T18:05:46.678Z,97702.84
2024-03-05T18:08:13.479Z,97705.75
2024-03-05T18:10:40.850Z,97711.34
2024-03-05T18:13:07.906Z,97707.31
2024-03-05T18:15:34.556Z,97712.91
2024-03-05T18:18:00.776Z,97711.31
2024-03-05T18:20:26.976Z,97711.56
2024-03-05T18:22:53.276Z,97711.56
2024-03-05T18:25:19.538Z,97714.22
2024-03-05T18:27:45.793Z,97709.94
2024-03-05T18:30:12.103Z,97709.09
2024-03-05T18:32:38.480Z,97708.06
2024-03-05T18:35:04.779Z,97709.09
2024-03-05T18:37:31.230Z,97715.53
2024-03-05T18:39:57.764Z,97708.56
2024-03-05T18:42:23.966Z,97714.97
2024-03-05T18:44:50.432Z,97717.63
2024-03-05T18:47:16.727Z,97717.06
2024-03-05T18:49:42.970Z,97726.13
2024-03-05T18:52:09.191Z,97722.66
2024-03-05T18:54:35.421Z,97727.19
2024-03-05T18:57:01.932Z,97721.31
2024-03-05T18:59:28.425Z,97726.09
2024-03-05T19:01:55.083Z,97711.63
2024-03-05T19:04:21.458Z,97719.63
2024-03-05T19:06:48.059Z,97718.56
2024-03-05T19:09:14.411Z,97725.06
2024-03-05T19:11:41.032Z,97736.56
2024-03-05T19:14:07.517Z,97745.94
2024-03-05T19:16:34.088Z,97750.47
2024-03-05T19:19:00.404Z,97762.44
2024-03-05T19:21:26.832Z,97761.03
2024-03-05T19:23:53.114Z,97759.28
2024-03-05T19:26:19.392Z,97759.72
2024-03-05T19:28:45.694Z,97753.63
2024-03-05T19:31:14.002Z,97754.75
2024-03-05T19:33:40.240Z,97758.84
2024-03-05T19:36:06.466Z,97749.78
2024-03-05T19:38:32.700Z,97754.16
2024-03-05T19:40:59.281Z,97756.31
2024-03-05T19:43:25.655Z,97750.69
2024-03-05T19:45:51.957Z,97755.78
2024-03-05T19:48:18.805Z,97751.78
2024-03-05T19:50:45.232Z,97757.44
2024-03-05T19:53:11.669Z,97748.06
2024-03-05T19:55:38.025Z,97746.19
2024-03-05T19:58:04.341Z,97751.00
2024-03-05T20:00:30.573Z,97753.19
2024-03-05T20:02:56.850Z,97741.91
2024-03-05T20:05:23.681Z,97743.78
2024-03-05T20:07:50.336Z,97740.56
2024-03-05T20:13:05.107Z,97739.25
2024-03-05T20:15:32.509Z,97752.91
2024-03-05T20:17:58.779Z,97754.81
2024-03-05T20:20:25.097Z,97753.72
2024-03-05T20:22:51.428Z,97754.78
2024-03-05T20:25:20.160Z,97757.75
2024-03-05T20:27:48.458Z,97759.06
2024-03-05T20:30:14.716Z,97760.69
2024-03-05T20:32:40.986Z,97761.75
2024-03-05T20:35:07.259Z,97753.16
2024-03-05T20:37:33.701Z,97753.69
2024-03-05T20:39:59.920Z,97749.41
2024-03-05T20:42:26.180Z,97759.06
2024-03-05T20:44:52.475Z,97754.81
2024-03-05T20:47:18.716Z,97753.72
2024-03-05T20:49:44.996Z,97754.25
2024-03-05T20:52:14.410Z,97745.13
2024-03-05T20:54:40.637Z,97751.28
2024-03-05T20:57:06.872Z,97747.78
2024-03-05T20:59:33.241Z,97758.25
2024-03-05T21:01:59.749Z,97750.47
2024-03-05T21:04:26.003Z,97750.44
2024-03-05T21:06:52.304Z,97744.00
2024-03-05T21:09:18.531Z,97748.72
2024-03-05T21:11:45.174Z,97754.88
2024-03-05T21:14:11.684Z,97759.13
2024-03-05T21:16:38.013Z,97758.28
2024-03-05T21:19:04.271Z,97769.28
2024-03-05T21:21:30.533Z,97773.09
2024-03-05T21:23:56.856Z,97773.41
2024-03-05T21:26:35.530Z,97770.78
2024-03-05T21:29:09.380Z,97785.31
2024-03-05T21:31:35.738Z,97791.75
2024-03-05T21:34:01.984Z,97789.09
2024-03-05T21:36:28.195Z,97795.78
2024-03-05T21:38:54.432Z,97800.63
2024-03-05T21:41:20.627Z,97805.19
2024-03-05T21:43:46.994Z,97809.50
2024-03-05T21:46:13.340Z,97805.19
2024-03-05T21:48:39.624Z,97804.66
2024-03-05T21:51:09.965Z,97803.59
2024-03-05T21:53:39.005Z,97810.00
2024-03-05T21:56:05.303Z,97807.59
2024-03-05T21:58:31.549Z,97812.13
2024-03-05T22:00:57.830Z,97820.19
2024-03-05T22:03:24.117Z,97816.19
2024-03-05T22:05:50.301Z,97818.31
2024-03-05T22:08:16.570Z,97819.13
2024-03-05T22:10:42.837Z,97819.91
2024-03-05T22:13:09.076Z,97819.34
2024-03-05T22:15:35.285Z,97822.31
2024-03-05T22:18:01.513Z,97819.06
2024-03-05T22:20:27.815Z,97820.09
2024-03-05T22:22:54.096Z,97817.66
2024-03-05T22:25:20.351Z,97814.94
2024-03-05T22:27:46.600Z,97813.00
2024-03-05T22:30:12.845Z,97815.63
2024-03-05T22:32:40.123Z,97812.38
2024-03-05T22:35:06.400Z,97811.50
2024-03-05T22:37:32.697Z,97817.06
2024-03-05T22:39:59.091Z,97821.00
2024-03-05T22:42:25.302Z,97815.84
2024-03-05T22:44:51.559Z,97820.28
2024-03-05T22:47:17.830Z,97821.25
2024-03-05T22:49:46.484Z,97822.22
2024-03-05T22:52:14.176Z,97813.31
2024-03-05T22:54:40.410Z,97819.13
2024-03-05T22:57:06.636Z,97816.13
2024-03-05T22:59:32.875Z,97814.16
2024-03-05T23:01:59.134Z,97814.63
2024-03-05T23:04:25.371Z,97829.47
2024-03-05T23:06:51.608Z,97824.56
2024-03-05T23:09:17.810Z,97835.44
2024-03-05T23:11:44.120Z,97835.88
2024-03-05T23:14:12.613Z,97841.41
2024-03-05T23:16:38.989Z,97841.34
2024-03-05T23:19:05.237Z,97843.78
2024-03-05T23:21:31.500Z,97845.13
2024-03-05T23:23:57.711Z,97847.78
2024-03-05T23:26:24.254Z,97851.53
2024-03-05T23:28:50.615Z,97850.09
2024-03-05T23:31:16.850Z,97854.50
2024-03-05T23:33:43.064Z,97852.78
2024-03-05T23:36:09.233Z,97851.56
2024-03-05T23:38:35.408Z,97851.19
2024-03-05T23:41:01.648Z,97852.66
2024-03-05T23:43:27.862Z,97861.84
2024-03-05T23:45:54.072Z,97857.50
2024-03-05T23:48:20.394Z,97856.88
2024-03-05T23:50:46.677Z,97863.41
2024-03-05T23:53:13.014Z,97869.47
2024-03-05T23:55:39.290Z,97868.81
2024-03-05T23:58:05.576Z,97869.78
